Time;durP1;ratioP1;P1;durP2;ratioP2;P2;SDS_P1;SDS_P2;PMS_P1;PMS_P2;Temp;Humidity;BMP_temperature;BMP_pressure;BME280_temperature;BME280_humidity;BME280_pressure;Samples;Min_cycle;Max_cycle;Signal;HPM_P1;HPM_P2
2022/05/09 00:01:44;;;;;;;;;;;18.20;58.40;;;;;;4955419;29;19910;-56
2022/05/09 00:04:10;;;;;;;;;;;18.20;58.40;;;;;;4955171;29;19918;-57
2022/05/09 00:06:35;;;;;;;;;;;18.20;58.10;;;;;;4955364;29;19911;-58
2022/05/09 00:09:01;;;;;;;;;;;18.20;58.20;;;;;;4955521;29;19910;-57
2022/05/09 00:11:27;;;;;;;;;;;18.10;58.30;;;;;;4955395;29;19930;-56
2022/05/09 00:13:52;;;;;;;;;;;18.10;58.30;;;;;;4955092;29;20464;-55
2022/05/09 00:16:18;;;;;;;;;;;18.10;58.30;;;;;;4955503;28;19910;-55
2022/05/09 00:18:43;;;;;;;;;;;18.10;58.50;;;;;;4958849;29;19910;-55
2022/05/09 00:21:09;;;;;;;;;;;18.10;58.30;;;;;;4959048;29;20303;-57
2022/05/09 00:23:35;;;;;;;;;;;18.20;58.30;;;;;;4958781;29;19911;-56
2022/05/09 00:26:01;;;;;;;;;;;18.10;58.10;;;;;;4958699;29;19915;-56
2022/05/09 00:28:26;;;;;;;;;;;18.20;58.00;;;;;;4958891;29;19917;-55
2022/05/09 00:30:54;;;;;;;;;;;18.20;58.00;;;;;;4958723;29;19917;-57
2022/05/09 00:33:20;;;;;;;;;;;18.10;58.20;;;;;;4958407;29;19914;-57
2022/05/09 00:35:45;;;;;;;;;;;18.10;58.30;;;;;;4958795;29;20009;-55
2022/05/09 00:38:11;;;;;;;;;;;18.10;58.30;;;;;;4958696;29;19923;-57
2022/05/09 00:40:37;;;;;;;;;;;18.00;58.30;;;;;;4963645;29;19972;-56
2022/05/09 00:43:03;;;;;;;;;;;18.00;58.50;;;;;;4958777;29;19910;-56
2022/05/09 00:45:28;;;;;;;;;;;18.00;58.70;;;;;;4958422;29;19966;-56
2022/05/09 00:47:54;;;;;;;;;;;17.90;58.80;;;;;;4958329;29;19917;-55
2022/05/09 00:50:26;;;;;;;;;;;18.00;58.70;;;;;;4958709;29;19930;-57
2022/05/09 00:52:59;;;;;;;;;;;18.00;58.50;;;;;;4958492;29;19910;-57
2022/05/09 00:55:42;;;;;;;;;;;17.90;58.30;;;;;;4958403;29;19947;-55
2022/05/09 00:58:14;;;;;;;;;;;17.90;58.50;;;;;;4958435;29;20259;-57
2022/05/09 01:00:41;;;;;;;;;;;17.90;58.40;;;;;;4958315;29;20969;-55
2022/05/09 01:03:09;;;;;;;;;;;17.90;58.30;;;;;;4958042;29;19956;-55
2022/05/09 01:05:36;;;;;;;;;;;17.90;58.50;;;;;;4958189;29;19998;-56
2022/05/09 01:08:02;;;;;;;;;;;17.90;58.40;;;;;;4958364;29;19998;-56
2022/05/09 01:10:32;;;;;;;;;;;17.80;58.70;;;;;;4957856;29;20413;-56
2022/05/09 01:13:03;;;;;;;;;;;17.80;58.80;;;;;;4958188;29;19917;-56
2022/05/09 01:15:28;;;;;;;;;;;17.70;58.70;;;;;;4958353;29;19934;-56
2022/05/09 01:17:54;;;;;;;;;;;17.70;58.70;;;;;;4958189;29;20342;-56
2022/05/09 01:20:20;;;;;;;;;;;17.70;58.50;;;;;;4957906;29;19958;-55
2022/05/09 01:22:45;;;;;;;;;;;17.80;58.50;;;;;;4940790;29;19910;-55
2022/05/09 01:25:13;;;;;;;;;;;17.70;58.60;;;;;;4957608;29;20371;-55
2022/05/09 01:27:40;;;;;;;;;;;17.70;58.80;;;;;;4957521;28;20379;-56
2022/05/09 01:30:06;;;;;;;;;;;17.70;58.70;;;;;;4957682;29;20044;-56
2022/05/09 01:32:35;;;;;;;;;;;17.70;58.40;;;;;;4957686;29;20394;-54
2022/05/09 01:35:10;;;;;;;;;;;17.80;58.50;;;;;;4957547;29;19918;-55
2022/05/09 01:37:36;;;;;;;;;;;17.60;58.60;;;;;;4957523;29;20387;-56
2022/05/09 01:40:03;;;;;;;;;;;17.70;58.40;;;;;;4957502;29;19914;-56
2022/05/09 01:42:29;;;;;;;;;;;17.70;58.20;;;;;;4957435;29;19911;-57
2022/05/09 01:44:54;;;;;;;;;;;17.70;58.30;;;;;;4957579;29;20005;-57
2022/05/09 01:50:05;;;;;;;;;;;17.60;58.40;;;;;;4957195;29;19993;-55
2022/05/09 01:52:30;;;;;;;;;;;17.60;58.40;;;;;;4957107;29;20355;-55
2022/05/09 01:54:56;;;;;;;;;;;17.60;58.40;;;;;;4956981;29;19917;-55
2022/05/09 01:57:21;;;;;;;;;;;17.70;58.20;;;;;;4957245;29;19910;-55
2022/05/09 01:59:47;;;;;;;;;;;17.70;58.20;;;;;;4957357;29;19914;-56
2022/05/09 02:02:15;;;;;;;;;;;17.60;58.20;;;;;;4957321;29;20355;-55
2022/05/09 02:04:41;;;;;;;;;;;17.60;58.30;;;;;;4956932;29;19919;-55
2022/05/09 02:07:11;;;;;;;;;;;17.70;58.20;;;;;;4956951;29;19911;-56
2022/05/09 02:09:44;;;;;;;;;;;17.60;58.00;;;;;;4956991;29;19910;-56
2022/05/09 02:12:10;;;;;;;;;;;17.70;58.00;;;;;;4956950;29;19914;-58
2022/05/09 02:14:36;;;;;;;;;;;17.70;57.60;;;;;;4956839;29;19926;-57
2022/05/09 02:17:01;;;;;;;;;;;17.70;57.60;;;;;;4956777;29;19911;-55
2022/05/09 02:19:27;;;;;;;;;;;17.70;57.50;;;;;;4959137;29;19973;-55
2022/05/09 02:21:53;;;;;;;;;;;17.80;57.30;;;;;;4958200;29;19911;-55
2022/05/09 02:24:19;;;;;;;;;;;17.80;57.30;;;;;;4956497;29;20379;-55
2022/05/09 02:26:44;;;;;;;;;;;17.80;57.30;;;;;;4956996;29;19965;-58
2022/05/09 02:29:10;;;;;;;;;;;17.80;57.40;;;;;;4956678;29;19910;-58
2022/05/09 02:31:36;;;;;;;;;;;17.80;57.50;;;;;;4956781;29;19911;-58
2022/05/09 02:34:01;;;;;;;;;;;17.80;57.30;;;;;;4956621;29;20323;-61
2022/05/09 02:36:27;;;;;;;;;;;17.80;57.50;;;;;;4956614;29;19937;-60
2022/05/09 02:38:53;;;;;;;;;;;17.80;57.70;;;;;;4956271;28;19958;-57
2022/05/09 02:41:18;;;;;;;;;;;17.70;57.50;;;;;;4956212;29;19953;-55
2022/05/09 02:43:44;;;;;;;;;;;17.70;57.80;;;;;;4956460;29;20263;-55
2022/05/09 02:46:10;;;;;;;;;;;17.70;57.70;;;;;;4956274;29;20401;-55
2022/05/09 02:48:36;;;;;;;;;;;17.60;58.00;;;;;;4955931;29;19910;-55
2022/05/09 02:51:03;;;;;;;;;;;17.60;58.00;;;;;;4956131;29;20367;-60
2022/05/09 02:53:28;;;;;;;;;;;17.60;57.90;;;;;;4956554;29;19911;-57
2022/05/09 02:55:54;;;;;;;;;;;17.60;58.20;;;;;;4956405;29;19917;-57
2022/05/09 02:58:19;;;;;;;;;;;17.60;58.00;;;;;;4955936;29;20278;-54
2022/05/09 03:00:45;;;;;;;;;;;17.60;58.00;;;;;;4956007;29;19910;-56
2022/05/09 03:05:56;;;;;;;;;;;17.60;58.70;;;;;;4956242;29;20469;-57
2022/05/09 03:08:22;;;;;;;;;;;17.60;58.20;;;;;;4955862;29;20379;-57
2022/05/09 03:10:47;;;;;;;;;;;17.60;58.10;;;;;;4956254;29;19923;-59
2022/05/09 03:13:13;;;;;;;;;;;17.60;58.30;;;;;;4955818;29;20001;-58
2022/05/09 03:15:41;;;;;;;;;;;17.50;58.50;;;;;;4956059;29;19910;-57
2022/05/09 03:18:07;;;;;;;;;;;17.50;58.50;;;;;;4955932;29;20316;-57
2022/05/09 03:20:33;;;;;;;;;;;17.60;58.50;;;;;;4955985;29;19915;-57
2022/05/09 03:22:58;;;;;;;;;;;17.50;58.80;;;;;;4956026;29;20380;-57
2022/05/09 03:25:24;;;;;;;;;;;17.50;58.70;;;;;;4955765;29;19918;-58
2022/05/09 03:27:49;;;;;;;;;;;17.50;58.70;;;;;;4956019;29;19918;-57
2022/05/09 03:30:16;;;;;;;;;;;17.60;58.70;;;;;;4955768;29;19921;-58
2022/05/09 03:32:41;;;;;;;;;;;17.60;58.60;;;;;;4955886;29;19965;-60
2022/05/09 03:35:08;;;;;;;;;;;17.70;58.50;;;;;;4955643;29;20005;-58
2022/05/09 03:37:34;;;;;;;;;;;17.60;58.50;;;;;;4955772;29;19918;-56
2022/05/09 03:39:59;;;;;;;;;;;17.60;58.60;;;;;;4955846;29;19911;-56
2022/05/09 03:42:25;;;;;;;;;;;17.60;58.70;;;;;;4955770;29;19997;-57
2022/05/09 03:44:51;;;;;;;;;;;17.60;58.50;;;;;;4955678;29;19958;-57
2022/05/09 03:47:17;;;;;;;;;;;17.70;58.40;;;;;;4955823;29;19911;-57
2022/05/09 03:49:43;;;;;;;;;;;17.70;58.30;;;;;;4955534;29;19923;-55
2022/05/09 03:52:08;;;;;;;;;;;17.80;57.90;;;;;;4957061;28;19910;-57
2022/05/09 03:54:34;;;;;;;;;;;17.90;57.40;;;;;;4959889;29;19965;-57
2022/05/09 03:56:59;;;;;;;;;;;17.90;57.50;;;;;;4942188;29;19911;-56
2022/05/09 03:59:25;;;;;;;;;;;17.90;57.70;;;;;;4959268;29;19933;-56
2022/05/09 04:01:50;;;;;;;;;;;18.00;56.90;;;;;;4959196;29;19958;-57
2022/05/09 04:04:16;;;;;;;;;;;18.00;57.20;;;;;;4959186;29;19918;-56
2022/05/09 04:06:42;;;;;;;;;;;18.00;57.10;;;;;;4941976;29;19964;-55
2022/05/09 04:09:07;;;;;;;;;;;18.00;57.10;;;;;;4959144;29;19930;-56
2022/05/09 04:11:33;;;;;;;;;;;18.00;56.70;;;;;;4959017;29;20383;-56
2022/05/09 04:13:58;;;;;;;;;;;18.00;56.60;;;;;;4959153;29;19910;-56
2022/05/09 04:19:08;;;;;;;;;;;18.10;56.50;;;;;;4958875;29;20385;-56
2022/05/09 04:21:33;;;;;;;;;;;18.10;56.40;;;;;;4959045;29;19911;-56
2022/05/09 04:23:59;;;;;;;;;;;18.10;56.30;;;;;;4959115;29;19925;-55
2022/05/09 04:26:25;;;;;;;;;;;18.00;56.30;;;;;;4958932;29;20004;-56
2022/05/09 04:28:51;;;;;;;;;;;18.20;56.30;;;;;;4958875;29;20350;-55
2022/05/09 04:31:17;;;;;;;;;;;18.10;56.20;;;;;;4959149;29;19910;-60
2022/05/09 04:33:42;;;;;;;;;;;18.10;56.10;;;;;;4959046;29;19910;-55
2022/05/09 04:36:08;;;;;;;;;;;18.10;56.10;;;;;;4958859;29;19953;-56
2022/05/09 04:38:38;;;;;;;;;;;18.10;56.20;;;;;;4958668;29;19911;-55
2022/05/09 04:41:04;;;;;;;;;;;18.00;56.60;;;;;;4958567;29;19910;-56
2022/05/09 04:43:31;;;;;;;;;;;18.00;56.40;;;;;;4958506;29;19965;-57
2022/05/09 04:46:00;;;;;;;;;;;18.00;56.40;;;;;;4958307;29;20011;-55
2022/05/09 04:48:25;;;;;;;;;;;18.20;56.30;;;;;;4958486;29;19910;-56
2022/05/09 04:50:51;;;;;;;;;;;18.30;56.20;;;;;;4958435;29;20334;-56
2022/05/09 04:53:16;;;;;;;;;;;18.30;56.00;;;;;;4958721;29;19911;-54
2022/05/09 04:55:42;;;;;;;;;;;18.40;55.70;;;;;;4958347;29;19911;-54
2022/05/09 04:58:10;;;;;;;;;;;18.40;56.00;;;;;;4958472;29;19942;-56
2022/05/09 05:00:36;;;;;;;;;;;18.50;56.00;;;;;;4959420;29;19910;-59
2022/05/09 05:03:01;;;;;;;;;;;18.50;56.20;;;;;;4960373;28;19918;-55
2022/05/09 05:05:27;;;;;;;;;;;18.50;55.70;;;;;;4958179;29;19977;-57
2022/05/09 05:07:53;;;;;;;;;;;18.60;55.80;;;;;;4958163;29;19966;-57
2022/05/09 05:10:19;;;;;;;;;;;18.70;55.60;;;;;;4958074;29;20005;-59
2022/05/09 05:12:44;;;;;;;;;;;18.80;55.30;;;;;;4957924;29;19917;-58
2022/05/09 05:15:10;;;;;;;;;;;18.80;55.50;;;;;;4958275;29;20005;-57
2022/05/09 05:17:37;;;;;;;;;;;18.90;55.20;;;;;;4957995;29;19911;-56
2022/05/09 05:20:04;;;;;;;;;;;19.00;55.50;;;;;;4940433;29;20631;-63
2022/05/09 05:22:30;;;;;;;;;;;19.10;55.30;;;;;;4957969;29;19994;-71
2022/05/09 05:24:55;;;;;;;;;;;19.10;54.70;;;;;;4957746;29;20037;-56
2022/05/09 05:27:21;;;;;;;;;;;19.10;54.00;;;;;;4957794;29;20419;-55
2022/05/09 05:29:47;;;;;;;;;;;19.20;55.90;;;;;;4957584;29;20294;-55
2022/05/09 05:32:17;;;;;;;;;;;19.30;55.20;;;;;;4957773;29;20378;-54
2022/05/09 05:34:43;;;;;;;;;;;19.30;54.40;;;;;;4957745;29;20027;-56
2022/05/09 05:37:08;;;;;;;;;;;19.30;54.90;;;;;;4957591;29;20058;-54
2022/05/09 05:39:36;;;;;;;;;;;19.30;54.90;;;;;;4957852;29;19993;-56
2022/05/09 05:42:03;;;;;;;;;;;19.40;54.30;;;;;;4957370;29;19914;-56
2022/05/09 05:44:28;;;;;;;;;;;19.40;54.00;;;;;;4957162;29;19921;-56
2022/05/09 05:46:54;;;;;;;;;;;19.40;54.30;;;;;;4957358;29;19914;-54
2022/05/09 05:49:19;;;;;;;;;;;19.60;54.30;;;;;;4957044;29;19962;-60
2022/05/09 05:51:45;;;;;;;;;;;19.80;53.00;;;;;;4957490;29;19965;-61
2022/05/09 05:54:10;;;;;;;;;;;20.00;53.40;;;;;;4957162;29;19974;-61
2022/05/09 05:56:37;;;;;;;;;;;20.30;52.80;;;;;;4957136;29;20331;-61
2022/05/09 05:59:04;;;;;;;;;;;20.30;52.20;;;;;;4956971;29;19910;-60
2022/05/09 06:01:29;;;;;;;;;;;20.30;51.50;;;;;;4957532;29;19918;-60
2022/05/09 06:03:55;;;;;;;;;;;20.50;52.40;;;;;;4950864;29;20290;-61
2022/05/09 06:06:20;;;;;;;;;;;20.70;51.60;;;;;;4946844;29;19914;-63
2022/05/09 06:08:46;;;;;;;;;;;20.90;51.00;;;;;;4947750;29;19925;-61
2022/05/09 06:11:13;;;;;;;;;;;21.00;50.80;;;;;;4945878;29;20298;-61
2022/05/09 06:13:40;;;;;;;;;;;21.20;50.50;;;;;;4946585;28;19918;-62
2022/05/09 06:16:05;;;;;;;;;;;21.30;50.00;;;;;;4947000;29;19918;-62
2022/05/09 06:18:31;;;;;;;;;;;21.20;50.90;;;;;;4947685;29;19911;-62
2022/05/09 06:20:57;;;;;;;;;;;21.20;50.70;;;;;;4941740;29;19917;-66
2022/05/09 06:23:23;;;;;;;;;;;21.30;50.20;;;;;;4937507;29;20050;-64
2022/05/09 06:25:48;;;;;;;;;;;21.40;50.60;;;;;;4937164;29;19923;-62
2022/05/09 06:28:15;;;;;;;;;;;21.60;49.80;;;;;;4937588;29;19994;-64
2022/05/09 06:30:41;;;;;;;;;;;21.60;49.70;;;;;;4937471;29;19915;-62
2022/05/09 06:33:07;;;;;;;;;;;21.60;50.00;;;;;;4937428;29;20355;-64
2022/05/09 06:35:37;;;;;;;;;;;21.80;49.90;;;;;;4937405;29;19922;-69
2022/05/09 06:38:04;;;;;;;;;;;22.10;49.40;;;;;;4937334;29;19966;-64
2022/05/09 06:40:31;;;;;;;;;;;21.90;48.90;;;;;;4937170;29;19911;-65
2022/05/09 06:42:57;;;;;;;;;;;22.20;49.10;;;;;;4937316;29;20367;-62
2022/05/09 06:45:23;;;;;;;;;;;22.50;48.90;;;;;;4937003;29;19966;-67
2022/05/09 06:47:50;;;;;;;;;;;22.60;48.00;;;;;;4937351;29;20010;-62
2022/05/09 06:50:17;;;;;;;;;;;22.50;48.60;;;;;;4936781;29;19926;-62
2022/05/09 06:52:42;;;;;;;;;;;21.90;49.10;;;;;;4937086;29;19917;-63
2022/05/09 06:55:09;;;;;;;;;;;21.70;50.30;;;;;;4936929;29;19910;-62
2022/05/09 06:57:38;;;;;;;;;;;21.40;49.80;;;;;;4937276;29;20009;-65
2022/05/09 07:00:05;;;;;;;;;;;21.30;51.00;;;;;;4936955;29;19911;-63
2022/05/09 07:02:31;;;;;;;;;;;21.20;51.10;;;;;;4936633;29;19922;-61
2022/05/09 07:04:56;;;;;;;;;;;21.20;51.60;;;;;;4936768;29;19919;-62
2022/05/09 07:07:22;;;;;;;;;;;20.70;50.50;;;;;;4943117;29;19915;-65
2022/05/09 07:09:48;;;;;;;;;;;20.60;51.50;;;;;;4944594;29;19968;-62
2022/05/09 07:12:13;;;;;;;;;;;20.60;52.30;;;;;;4935958;29;19911;-61
2022/05/09 07:14:39;;;;;;;;;;;20.50;52.50;;;;;;4936530;29;19958;-62
2022/05/09 07:17:05;;;;;;;;;;;20.60;52.60;;;;;;4936620;29;19971;-63
2022/05/09 07:19:31;;;;;;;;;;;20.70;52.10;;;;;;4936236;29;19911;-62
2022/05/09 07:21:57;;;;;;;;;;;20.50;52.70;;;;;;4936385;29;19911;-63
2022/05/09 07:24:22;;;;;;;;;;;20.40;52.90;;;;;;4936349;29;20022;-63
2022/05/09 07:26:48;;;;;;;;;;;20.50;53.10;;;;;;4936336;29;20013;-62
2022/05/09 07:29:14;;;;;;;;;;;20.60;52.60;;;;;;4936474;29;19966;-62
2022/05/09 07:31:39;;;;;;;;;;;20.70;52.80;;;;;;4936689;29;19918;-63
2022/05/09 07:34:05;;;;;;;;;;;20.80;52.60;;;;;;4936371;29;19918;-62
2022/05/09 07:36:31;;;;;;;;;;;20.60;52.70;;;;;;4936343;29;19918;-63
2022/05/09 07:38:56;;;;;;;;;;;20.70;53.30;;;;;;4936345;29;19911;-63
2022/05/09 07:41:22;;;;;;;;;;;20.90;52.40;;;;;;4936370;29;20434;-62
2022/05/09 07:43:47;;;;;;;;;;;21.00;52.80;;;;;;4938560;29;20017;-62
2022/05/09 07:46:13;;;;;;;;;;;21.30;52.70;;;;;;4944602;29;20018;-62
2022/05/09 07:48:40;;;;;;;;;;;21.70;51.80;;;;;;4945316;29;20359;-63
2022/05/09 07:51:05;;;;;;;;;;;22.10;50.20;;;;;;4945940;29;19930;-62
2022/05/09 07:53:32;;;;;;;;;;;22.20;49.60;;;;;;4944491;29;19915;-64
2022/05/09 07:55:58;;;;;;;;;;;22.40;49.30;;;;;;4945578;29;19915;-64
2022/05/09 07:58:23;;;;;;;;;;;22.40;49.50;;;;;;4945623;29;19918;-64
2022/05/09 08:00:49;;;;;;;;;;;22.70;49.50;;;;;;4944096;29;19911;-65
2022/05/09 08:03:19;;;;;;;;;;;22.90;49.30;;;;;;4946009;29;20031;-63
2022/05/09 08:05:45;;;;;;;;;;;23.00;48.80;;;;;;4945550;29;19919;-63
2022/05/09 08:08:12;;;;;;;;;;;23.20;49.00;;;;;;4944163;29;19933;-63
2022/05/09 08:10:38;;;;;;;;;;;23.00;48.30;;;;;;4945742;29;19924;-64
2022/05/09 08:13:04;;;;;;;;;;;23.00;48.60;;;;;;4946169;29;20005;-65
2022/05/09 08:15:31;;;;;;;;;;;23.20;48.70;;;;;;4944176;29;20266;-65
2022/05/09 08:17:58;;;;;;;;;;;23.30;48.20;;;;;;4945093;29;19946;-64
2022/05/09 08:20:24;;;;;;;;;;;23.20;48.10;;;;;;4951180;29;20005;-65
2022/05/09 08:22:58;;;;;;;;;;;23.20;48.20;;;;;;4955449;29;20354;-64
2022/05/09 08:25:24;;;;;;;;;;;23.30;47.80;;;;;;4955045;29;19965;-63
2022/05/09 08:27:51;;;;;;;;;;;23.50;48.20;;;;;;4955214;29;19914;-64
2022/05/09 08:30:18;;;;;;;;;;;23.70;47.40;;;;;;4955119;29;19911;-66
2022/05/09 08:32:43;;;;;;;;;;;23.70;46.40;;;;;;4937786;29;19910;-67
2022/05/09 08:35:09;;;;;;;;;;;23.70;46.60;;;;;;4955263;29;19910;-65
2022/05/09 08:37:35;;;;;;;;;;;23.90;47.30;;;;;;4955578;28;20417;-68
2022/05/09 08:40:02;;;;;;;;;;;23.90;45.90;;;;;;4958407;29;19914;-66
2022/05/09 08:42:38;;;;;;;;;;;23.80;46.00;;;;;;4958671;29;19914;-65
2022/05/09 08:45:06;;;;;;;;;;;23.70;46.50;;;;;;4958374;29;19941;-67
2022/05/09 08:47:49;;;;;;;;;;;23.80;46.60;;;;;;4958499;29;19922;-65
2022/05/09 08:50:21;;;;;;;;;;;23.80;46.00;;;;;;4952545;29;19922;-65
2022/05/09 08:52:49;;;;;;;;;;;23.80;45.10;;;;;;4947800;29;20383;-64
2022/05/09 08:55:16;;;;;;;;;;;23.90;46.00;;;;;;4947637;29;19911;-62
2022/05/09 08:58:08;;;;;;;;;;;24.00;46.00;;;;;;4949075;29;19980;-66
2022/05/09 09:00:34;;;;;;;;;;;24.10;46.10;;;;;;4942480;29;19911;-66
2022/05/09 09:03:18;;;;;;;;;;;24.20;46.10;;;;;;4939111;29;20383;-64
2022/05/09 09:05:45;;;;;;;;;;;24.30;45.30;;;;;;4944073;29;19930;-61
2022/05/09 09:08:18;;;;;;;;;;;24.30;45.10;;;;;;4948451;29;19933;-63
2022/05/09 09:10:47;;;;;;;;;;;24.20;45.30;;;;;;4948645;29;19910;-63
2022/05/09 09:13:28;;;;;;;;;;;24.00;45.60;;;;;;4947711;29;19915;-66
2022/05/09 09:16:16;;;;;;;;;;;24.10;45.50;;;;;;4953345;29;20024;-64
2022/05/09 09:19:00;;;;;;;;;;;24.00;44.90;;;;;;4957622;29;19910;-63
2022/05/09 09:21:31;;;;;;;;;;;24.20;45.30;;;;;;4957801;29;20005;-63
2022/05/09 09:24:15;;;;;;;;;;;24.20;44.60;;;;;;4957555;29;19910;-61
2022/05/09 09:26:59;;;;;;;;;;;24.20;45.40;;;;;;4957671;29;19970;-60
2022/05/09 09:29:35;;;;;;;;;;;24.40;45.00;;;;;;4957526;29;19957;-60
2022/05/09 09:32:07;;;;;;;;;;;24.50;43.90;;;;;;4957716;29;19965;-60
2022/05/09 09:34:33;;;;;;;;;;;24.40;44.40;;;;;;4957480;29;20008;-58
2022/05/09 09:37:11;;;;;;;;;;;24.50;45.20;;;;;;4957628;29;19914;-63
2022/05/09 09:39:36;;;;;;;;;;;24.20;44.20;;;;;;4957233;29;20328;-69
2022/05/09 09:42:02;;;;;;;;;;;24.10;45.30;;;;;;4957671;29;19945;-63
2022/05/09 09:44:28;;;;;;;;;;;23.90;46.80;;;;;;4957316;29;20310;-62
2022/05/09 09:46:59;;;;;;;;;;;23.70;45.90;;;;;;4957583;29;19961;-61
2022/05/09 09:49:25;;;;;;;;;;;23.70;47.00;;;;;;4957068;28;19923;-64
2022/05/09 09:51:51;;;;;;;;;;;23.50;46.90;;;;;;4957173;29;20006;-62
2022/05/09 09:54:21;;;;;;;;;;;23.50;46.20;;;;;;4957094;29;19910;-61
2022/05/09 09:56:47;;;;;;;;;;;23.50;47.50;;;;;;4957241;29;19926;-60
2022/05/09 09:59:29;;;;;;;;;;;23.30;47.10;;;;;;4953916;29;19914;-59
2022/05/09 10:02:03;;;;;;;;;;;23.40;47.40;;;;;;4945551;29;19934;-62
2022/05/09 10:04:29;;;;;;;;;;;23.50;48.20;;;;;;4946481;29;20286;-63
2022/05/09 10:07:04;;;;;;;;;;;23.50;47.20;;;;;;4948013;29;19922;-65
2022/05/09 10:09:37;;;;;;;;;;;23.60;46.90;;;;;;4947262;29;19990;-61
2022/05/09 10:12:18;;;;;;;;;;;23.70;47.30;;;;;;4954616;29;19910;-59
2022/05/09 10:14:44;;;;;;;;;;;23.80;47.00;;;;;;4955880;29;20271;-59
2022/05/09 10:17:17;;;;;;;;;;;23.80;45.70;;;;;;4954003;29;19918;-61
2022/05/09 10:19:43;;;;;;;;;;;23.60;45.80;;;;;;4956723;29;19911;-61
2022/05/09 10:24:57;;;;;;;;;;;23.60;46.70;;;;;;4956828;29;20009;-64
2022/05/09 10:27:22;;;;;;;;;;;23.70;46.10;;;;;;4939825;29;20274;-60
2022/05/09 10:29:50;;;;;;;;;;;23.60;46.10;;;;;;4954350;29;19911;-61
2022/05/09 10:32:17;;;;;;;;;;;23.70;46.80;;;;;;4955876;29;19948;-61
2022/05/09 10:34:56;;;;;;;;;;;23.70;46.80;;;;;;4955544;29;19911;-60
2022/05/09 10:37:29;;;;;;;;;;;23.80;47.80;;;;;;4955857;29;19910;-59
2022/05/09 10:40:00;;;;;;;;;;;24.00;46.30;;;;;;4955547;29;19957;-62
2022/05/09 10:42:33;;;;;;;;;;;23.80;46.30;;;;;;4938345;29;19910;-64
2022/05/09 10:45:06;;;;;;;;;;;23.80;47.10;;;;;;4937974;29;20320;-59
2022/05/09 10:47:31;;;;;;;;;;;23.90;46.30;;;;;;4955370;29;20322;-60
2022/05/09 10:49:57;;;;;;;;;;;23.90;46.80;;;;;;4955263;29;19964;-61
2022/05/09 10:52:41;;;;;;;;;;;23.90;46.20;;;;;;4955475;29;19998;-61
2022/05/09 10:55:13;;;;;;;;;;;23.90;46.70;;;;;;4955390;29;19914;-61
2022/05/09 10:57:40;;;;;;;;;;;23.90;45.30;;;;;;4955238;29;19917;-60
2022/05/09 11:00:12;;;;;;;;;;;24.00;46.30;;;;;;4954999;28;19946;-60
2022/05/09 11:02:40;;;;;;;;;;;24.00;45.70;;;;;;4955088;29;20327;-62
2022/05/09 11:05:06;;;;;;;;;;;24.10;44.60;;;;;;4954936;29;20394;-59
2022/05/09 11:07:50;;;;;;;;;;;24.20;44.00;;;;;;4955040;28;20355;-62
2022/05/09 11:10:15;;;;;;;;;;;24.20;43.90;;;;;;4955008;29;19918;-61
2022/05/09 11:12:41;;;;;;;;;;;24.30;43.60;;;;;;4953655;29;19910;-62
2022/05/09 11:15:11;;;;;;;;;;;24.20;43.30;;;;;;4955007;29;19915;-61
2022/05/09 11:17:48;;;;;;;;;;;24.20;44.40;;;;;;4954707;29;20020;-61
2022/05/09 11:20:16;;;;;;;;;;;24.10;44.70;;;;;;4954988;29;19965;-61
2022/05/09 11:22:50;;;;;;;;;;;24.00;45.00;;;;;;4954756;29;19916;-60
2022/05/09 11:25:24;;;;;;;;;;;24.00;44.70;;;;;;4954803;29;19922;-58
2022/05/09 11:28:08;;;;;;;;;;;24.10;45.10;;;;;;4954570;29;19918;-60
2022/05/09 11:30:37;;;;;;;;;;;24.30;43.10;;;;;;4954681;29;19910;-61
2022/05/09 11:33:06;;;;;;;;;;;24.50;44.00;;;;;;4954819;29;19953;-58
2022/05/09 11:35:34;;;;;;;;;;;24.60;43.60;;;;;;4953872;29;20275;-59
2022/05/09 11:38:12;;;;;;;;;;;24.70;41.90;;;;;;4954854;29;20307;-59
2022/05/09 11:40:43;;;;;;;;;;;24.60;41.30;;;;;;4954427;29;20017;-57
2022/05/09 11:43:35;;;;;;;;;;;24.40;41.30;;;;;;4954878;29;19911;-58
2022/05/09 11:46:06;;;;;;;;;;;24.20;42.40;;;;;;4954699;29;20009;-59
2022/05/09 11:48:50;;;;;;;;;;;24.20;42.40;;;;;;4954356;29;20028;-61
2022/05/09 11:51:22;;;;;;;;;;;24.10;42.60;;;;;;4954709;29;19977;-61
2022/05/09 11:53:50;;;;;;;;;;;24.00;42.90;;;;;;4953552;29;20401;-60
2022/05/09 11:56:17;;;;;;;;;;;24.00;43.60;;;;;;4953824;29;19922;-65
2022/05/09 11:58:43;;;;;;;;;;;24.00;42.70;;;;;;4953413;29;20005;-64
2022/05/09 12:01:09;;;;;;;;;;;23.80;42.90;;;;;;4953842;29;19910;-62
2022/05/09 12:03:40;;;;;;;;;;;23.80;43.90;;;;;;4936258;29;19915;-60
2022/05/09 12:06:10;;;;;;;;;;;23.80;43.90;;;;;;4953857;29;20293;-61
2022/05/09 12:08:45;;;;;;;;;;;23.90;44.10;;;;;;4953613;29;19918;-61
2022/05/09 12:11:22;;;;;;;;;;;23.90;44.60;;;;;;4953583;29;19971;-59
2022/05/09 12:13:52;;;;;;;;;;;23.90;44.90;;;;;;4953633;29;19962;-57
2022/05/09 12:16:34;;;;;;;;;;;23.90;45.30;;;;;;4957263;29;19960;-61
2022/05/09 12:19:00;;;;;;;;;;;23.90;44.40;;;;;;4957364;29;20227;-59
2022/05/09 12:21:31;;;;;;;;;;;23.90;45.20;;;;;;4957517;29;19910;-60
2022/05/09 12:24:12;;;;;;;;;;;23.80;45.20;;;;;;4957896;29;19933;-59
2022/05/09 12:26:39;;;;;;;;;;;23.70;45.60;;;;;;4957062;29;20024;-58
2022/05/09 12:29:08;;;;;;;;;;;23.70;45.50;;;;;;4957646;29;19910;-59
2022/05/09 12:31:38;;;;;;;;;;;23.70;45.90;;;;;;4957760;29;19958;-59
2022/05/09 12:34:04;;;;;;;;;;;23.70;47.60;;;;;;4957950;29;19933;-62
2022/05/09 12:36:31;;;;;;;;;;;23.80;46.40;;;;;;4957624;29;19911;-60
2022/05/09 12:39:16;;;;;;;;;;;23.70;45.40;;;;;;4957867;29;19939;-61
2022/05/09 12:41:45;;;;;;;;;;;23.70;45.60;;;;;;4957618;29;20001;-60
2022/05/09 12:44:14;;;;;;;;;;;23.80;46.50;;;;;;4957627;29;19917;-59
2022/05/09 12:46:49;;;;;;;;;;;23.80;46.00;;;;;;4957675;29;19914;-57
2022/05/09 12:49:16;;;;;;;;;;;23.80;47.00;;;;;;4958026;29;19923;-59
2022/05/09 12:51:43;;;;;;;;;;;23.80;47.00;;;;;;4958158;29;20045;-58
2022/05/09 12:54:10;;;;;;;;;;;23.80;47.80;;;;;;4958288;29;19921;-59
2022/05/09 12:56:37;;;;;;;;;;;23.80;48.30;;;;;;4958348;29;20274;-59
2022/05/09 12:59:04;;;;;;;;;;;23.80;48.60;;;;;;4958423;29;20001;-60
2022/05/09 13:01:30;;;;;;;;;;;23.80;49.30;;;;;;4958206;29;20363;-61
2022/05/09 13:03:56;;;;;;;;;;;23.80;49.70;;;;;;4957896;29;19930;-59
2022/05/09 13:06:23;;;;;;;;;;;23.70;48.50;;;;;;4957864;29;19973;-60
2022/05/09 13:08:49;;;;;;;;;;;23.70;48.70;;;;;;4958072;29;19918;-59
2022/05/09 13:11:17;;;;;;;;;;;23.60;48.90;;;;;;4958241;29;20279;-58
2022/05/09 13:14:07;;;;;;;;;;;23.60;49.40;;;;;;4958108;29;20346;-58
2022/05/09 13:16:49;;;;;;;;;;;23.60;49.60;;;;;;4947879;29;19919;-60
2022/05/09 13:19:15;;;;;;;;;;;23.60;49.40;;;;;;4957889;29;20001;-60
2022/05/09 13:21:41;;;;;;;;;;;23.60;49.30;;;;;;4957829;29;19933;-61
2022/05/09 13:24:08;;;;;;;;;;;23.70;49.80;;;;;;4949230;28;20363;-59
2022/05/09 13:26:38;;;;;;;;;;;23.30;52.90;;;;;;4948643;29;19921;-60
2022/05/09 13:29:09;;;;;;;;;;;22.90;53.20;;;;;;4947854;29;20402;-61
2022/05/09 13:31:42;;;;;;;;;;;22.70;52.70;;;;;;4946480;29;20018;-60
2022/05/09 13:34:23;;;;;;;;;;;22.70;53.90;;;;;;4946935;29;19917;-60
2022/05/09 13:36:49;;;;;;;;;;;22.90;52.60;;;;;;4947033;29;19915;-59
2022/05/09 13:39:22;;;;;;;;;;;23.10;52.60;;;;;;4946252;29;19932;-59
2022/05/09 13:41:48;;;;;;;;;;;23.30;52.70;;;;;;4946716;29;20385;-58
2022/05/09 13:44:19;;;;;;;;;;;23.30;48.90;;;;;;4948271;29;19915;-60
2022/05/09 13:46:45;;;;;;;;;;;23.30;49.10;;;;;;4947758;29;20385;-60
2022/05/09 13:49:15;;;;;;;;;;;23.30;48.50;;;;;;4945904;28;20025;-61
2022/05/09 13:51:42;;;;;;;;;;;23.30;47.90;;;;;;4947425;29;20382;-62
2022/05/09 13:54:09;;;;;;;;;;;23.30;48.40;;;;;;4947813;29;19915;-61
2022/05/09 13:56:36;;;;;;;;;;;23.30;48.30;;;;;;4945676;29;19926;-63
2022/05/09 13:59:04;;;;;;;;;;;23.40;47.40;;;;;;4943265;29;20359;-58
2022/05/09 14:01:49;;;;;;;;;;;23.40;50.90;;;;;;4946949;29;19911;-59
2022/05/09 14:04:16;;;;;;;;;;;23.50;50.90;;;;;;4953672;29;19914;-60
2022/05/09 14:06:44;;;;;;;;;;;23.50;52.00;;;;;;4954500;29;19915;-60
2022/05/09 14:09:15;;;;;;;;;;;23.60;51.60;;;;;;4954809;29;19911;-60
2022/05/09 14:11:52;;;;;;;;;;;23.90;51.00;;;;;;4954574;29;19915;-59
2022/05/09 14:14:36;;;;;;;;;;;24.00;49.80;;;;;;4945943;29;19910;-60
2022/05/09 14:17:02;;;;;;;;;;;24.00;50.80;;;;;;4948026;29;19937;-59
2022/05/09 14:19:29;;;;;;;;;;;24.00;51.20;;;;;;4957062;29;19938;-60
2022/05/09 14:22:03;;;;;;;;;;;23.90;50.70;;;;;;4956785;29;19914;-60
2022/05/09 14:24:30;;;;;;;;;;;23.90;49.80;;;;;;4956671;29;19974;-63
2022/05/09 14:29:48;;;;;;;;;;;23.90;50.10;;;;;;4956628;29;19917;-62
2022/05/09 14:32:34;;;;;;;;;;;23.80;49.40;;;;;;4956758;29;20363;-70
2022/05/09 14:35:00;;;;;;;;;;;23.70;48.70;;;;;;4952561;29;19972;-62
2022/05/09 14:37:26;;;;;;;;;;;23.70;49.80;;;;;;4945231;29;20367;-62